createdAt,value
2018-12-17T00:01:57.281Z,8.10
2018-12-17T00:05:00.255Z,8.30
2018-12-17T00:08:04.149Z,7.33
2018-12-17T00:11:06.939Z,7.87
2018-12-17T00:14:09.478Z,8.00
2018-12-17T00:17:13.492Z,7.60
2018-12-17T00:20:17.261Z,8.00
2018-12-17T00:23:19.984Z,8.03
2018-12-17T00:26:23.368Z,8.13
2018-12-17T00:29:27.474Z,9.83
2018-12-17T00:32:30.003Z,8.10
2018-12-17T00:35:33.240Z,8.33
2018-12-17T00:38:35.784Z,7.57
2018-12-17T00:41:41.678Z,8.17
2018-12-17T00:44:44.702Z,8.03
2018-12-17T00:47:47.496Z,7.73
2018-12-17T00:50:51.685Z,7.93
2018-12-17T00:53:56.600Z,7.47
2018-12-17T01:00:27.033Z,7.90
2018-12-17T01:03:30.541Z,7.97
2018-12-17T01:06:33.086Z,8.00
2018-12-17T01:09:35.605Z,8.03
2018-12-17T01:12:38.212Z,8.27
2018-12-17T01:15:40.749Z,7.47
2018-12-17T01:18:43.342Z,8.10
2018-12-17T01:21:45.998Z,7.63
2018-12-17T01:24:48.460Z,8.30
2018-12-17T01:27:50.961Z,8.40
2018-12-17T01:30:53.544Z,8.27
2018-12-17T01:33:59.361Z,8.30
2018-12-17T01:37:01.854Z,8.97
2018-12-17T01:40:06.055Z,8.20
2018-12-17T01:43:08.760Z,8.50
2018-12-17T01:46:13.504Z,8.97
2018-12-17T01:49:15.950Z,8.20
2018-12-17T01:52:18.534Z,8.40
2018-12-17T01:55:21.018Z,9.33
2018-12-17T01:58:29.153Z,8.57
2018-12-17T02:01:28.283Z,7.27
2018-12-17T02:04:30.850Z,8.10
2018-12-17T02:07:34.466Z,8.30
2018-12-17T02:10:36.990Z,8.43
2018-12-17T02:13:40.552Z,8.47
2018-12-17T02:16:43.194Z,7.77
2018-12-17T02:19:47.293Z,9.17
2018-12-17T02:22:54.056Z,9.10
2018-12-17T02:25:56.572Z,7.57
2018-12-17T02:29:01.081Z,8.67
2018-12-17T02:32:03.655Z,8.53
2018-12-17T02:35:06.522Z,9.60
2018-12-17T02:38:09.081Z,8.93
2018-12-17T02:41:13.609Z,9.93
2018-12-17T02:44:16.611Z,8.57
2018-12-17T02:47:19.999Z,8.67
2018-12-17T02:50:22.641Z,8.60
2018-12-17T02:53:30.931Z,8.03
2018-12-17T02:56:37.462Z,9.10
2018-12-17T02:59:44.929Z,8.40
2018-12-17T03:02:56.699Z,9.23
2018-12-17T03:06:10.889Z,8.53
2018-12-17T03:09:15.867Z,7.47
2018-12-17T03:12:18.451Z,8.90
2018-12-17T03:15:21.388Z,8.60
2018-12-17T03:18:23.874Z,8.40
2018-12-17T03:21:27.355Z,8.33
2018-12-17T03:24:30.909Z,8.03
2018-12-17T03:27:34.340Z,8.77
2018-12-17T03:30:37.639Z,8.70
2018-12-17T03:33:40.337Z,8.57
2018-12-17T03:36:48.044Z,8.67
2018-12-17T03:39:50.622Z,8.33
2018-12-17T03:42:54.148Z,9.03
2018-12-17T03:45:56.611Z,8.80
2018-12-17T03:49:00.254Z,9.03
2018-12-17T03:52:02.742Z,8.90
2018-12-17T03:55:05.236Z,8.37
2018-12-17T03:58:08.765Z,8.30
2018-12-17T04:01:11.358Z,8.30
2018-12-17T04:04:13.885Z,8.87
2018-12-17T04:07:19.564Z,8.70
2018-12-17T04:10:22.075Z,7.93
2018-12-17T04:13:25.754Z,8.20
2018-12-17T04:16:28.247Z,9.40
2018-12-17T04:19:30.782Z,8.27
2018-12-17T04:22:33.546Z,8.03
2018-12-17T04:25:36.051Z,8.77
2018-12-17T04:28:38.592Z,8.60
2018-12-17T04:31:41.299Z,8.33
2018-12-17T04:34:48.631Z,8.47
2018-12-17T04:37:51.099Z,8.33
2018-12-17T04:40:54.034Z,9.00
2018-12-17T04:44:00.854Z,8.00
2018-12-17T04:47:06.884Z,9.40
2018-12-17T04:50:15.338Z,8.60
2018-12-17T04:53:21.130Z,8.77
2018-12-17T04:56:27.240Z,8.17
2018-12-17T04:59:35.047Z,8.77
2018-12-17T05:02:38.188Z,9.03
2018-12-17T05:05:42.050Z,8.40
2018-12-17T05:08:47.135Z,8.17
2018-12-17T05:11:49.827Z,8.10
2018-12-17T05:14:52.408Z,8.77
2018-12-17T05:18:00.255Z,7.97
2018-12-17T05:21:13.881Z,8.70
2018-12-17T05:24:19.862Z,7.87
2018-12-17T05:27:32.397Z,8.20
2018-12-17T05:30:36.971Z,7.53
2018-12-17T05:33:44.756Z,8.43
2018-12-17T05:36:56.174Z,7.67
2018-12-17T05:40:03.050Z,7.67
2018-12-17T05:43:14.951Z,8.30
2018-12-17T05:46:32.344Z,8.50
2018-12-17T05:49:37.973Z,7.83
2018-12-17T05:52:44.808Z,8.37
2018-12-17T05:55:50.183Z,7.77
2018-12-17T05:58:54.785Z,8.13
2018-12-17T06:02:00.901Z,7.93
2018-12-17T06:05:08.460Z,8.47
2018-12-17T06:08:15.440Z,7.93
2018-12-17T06:11:19.715Z,8.60
2018-12-17T06:17:34.729Z,7.27
2018-12-17T06:20:38.491Z,8.03
2018-12-17T06:23:48.385Z,7.83
2018-12-17T06:26:51.192Z,7.27
2018-12-17T06:29:54.059Z,7.77
2018-12-17T06:32:56.867Z,7.70
2018-12-17T06:35:59.423Z,8.30
2018-12-17T06:39:04.821Z,7.67
2018-12-17T06:42:07.970Z,8.30
2018-12-17T06:45:11.844Z,7.43
2018-12-17T06:48:17.322Z,7.60
2018-12-17T06:51:23.083Z,7.90
2018-12-17T06:54:25.843Z,7.77
2018-12-17T06:57:28.332Z,7.20
2018-12-17T07:00:35.531Z,7.53
2018-12-17T07:03:38.052Z,7.53
2018-12-17T07:06:40.618Z,7.03
2018-12-17T07:09:43.524Z,7.97
2018-12-17T07:12:47.214Z,7.43
2018-12-17T07:15:49.771Z,7.43
2018-12-17T07:18:53.543Z,7.33
2018-12-17T07:21:56.103Z,6.83
2018-12-17T07:25:01.960Z,8.00
2018-12-17T07:28:05.559Z,7.77
2018-12-17T07:31:08.161Z,6.87
2018-12-17T07:34:11.434Z,7.80
2018-12-17T07:37:14.641Z,7.17
2018-12-17T07:40:33.165Z,6.90
2018-12-17T08:23:51.182Z,6.90
2018-12-17T08:48:17.904Z,6.13
2018-12-17T09:12:47.928Z,6.63
2018-12-17T09:15:51.605Z,7.50
2018-12-17T09:18:54.745Z,5.90
2018-12-17T09:21:57.219Z,6.73
2018-12-17T09:24:59.770Z,6.83
2018-12-17T09:28:02.296Z,7.20
2018-12-17T09:31:04.760Z,6.10
2018-12-17T09:34:10.110Z,6.30
2018-12-17T09:37:13.501Z,8.53
2018-12-17T09:40:15.959Z,7.83
2018-12-17T09:43:19.298Z,5.70
2018-12-17T09:46:22.796Z,6.10
2018-12-17T09:49:26.775Z,5.67
2018-12-17T09:52:30.210Z,5.77
2018-12-17T09:55:33.710Z,5.60
2018-12-17T09:58:36.176Z,5.47
2018-12-17T10:01:40.513Z,6.07
2018-12-17T10:04:44.007Z,6.17
2018-12-17T10:07:50.400Z,6.10
2018-12-17T10:10:52.854Z,5.53
2018-12-17T10:13:56.262Z,6.00
2018-12-17T10:16:59.664Z,5.43
2018-12-17T10:20:02.839Z,5.53
2018-12-17T10:23:05.378Z,5.73
2018-12-17T10:26:08.214Z,6.60
2018-12-17T10:29:10.690Z,5.80
2018-12-17T10:32:13.178Z,5.93
2018-12-17T10:35:15.677Z,6.93
2018-12-17T10:38:18.240Z,5.27
2018-12-17T10:41:20.731Z,7.20
2018-12-17T10:44:24.605Z,6.93
2018-12-17T10:47:27.136Z,7.13
2018-12-17T10:50:29.612Z,6.77
2018-12-17T10:53:32.065Z,5.93
2018-12-17T10:56:34.556Z,5.63
2018-12-17T10:59:37.076Z,5.93
2018-12-17T11:02:39.548Z,7.90
2018-12-17T11:05:45.382Z,7.30
2018-12-17T11:08:49.561Z,5.30
2018-12-17T11:11:53.098Z,6.17
2018-12-17T11:14:55.558Z,6.77
2018-12-17T11:18:00.052Z,5.33
2018-12-17T11:21:02.532Z,6.20
2018-12-17T11:24:05.000Z,6.17
2018-12-17T11:27:09.287Z,6.10
2018-12-17T11:30:12.910Z,6.60
2018-12-17T11:33:15.620Z,7.00
2018-12-17T11:36:19.020Z,5.93
2018-12-17T11:39:22.610Z,6.10
2018-12-17T11:42:25.058Z,7.47
2018-12-17T11:45:28.490Z,6.13
2018-12-17T11:48:32.160Z,5.50
2018-12-17T12:27:02.424Z,7.37
2018-12-17T12:30:08.587Z,6.03
2018-12-17T12:33:13.568Z,6.00
2018-12-17T13:27:44.516Z,7.70
2018-12-17T14:10:25.231Z,6.57
2018-12-17T14:13:29.319Z,6.83
2018-12-17T14:23:29.199Z,5.83
2018-12-17T14:26:35.262Z,6.87
2018-12-17T14:29:38.708Z,5.83
2018-12-17T14:32:41.318Z,7.37
2018-12-17T14:35:49.532Z,8.63
2018-12-17T14:38:52.083Z,6.20
2018-12-17T14:42:03.169Z,7.67
2018-12-17T14:45:06.440Z,8.37
2018-12-17T15:07:55.282Z,6.10
2018-12-17T15:10:57.874Z,6.30
2018-12-17T15:14:00.356Z,6.00
2018-12-17T15:17:02.835Z,6.33
2018-12-17T15:20:08.937Z,6.20
2018-12-17T15:23:11.569Z,6.90
2018-12-17T15:26:14.105Z,6.53
2018-12-17T15:29:17.057Z,7.77
2018-12-17T15:32:19.577Z,6.53
2018-12-17T15:35:22.367Z,6.40
2018-12-17T15:38:27.208Z,7.83
2018-12-17T15:41:29.947Z,6.70
2018-12-17T15:44:36.057Z,8.40
2018-12-17T15:51:39.314Z,8.63
2018-12-17T15:54:41.775Z,7.13
2018-12-17T15:57:44.258Z,7.87
2018-12-17T16:00:46.820Z,7.03
2018-12-17T16:03:49.270Z,6.50
2018-12-17T16:06:51.735Z,6.47
2018-12-17T16:09:55.501Z,10.40
2018-12-17T16:12:58.000Z,8.23
2018-12-17T16:16:00.546Z,8.27
2018-12-17T16:19:03.028Z,6.90
2018-12-17T16:22:05.499Z,7.43
2018-12-17T16:25:07.985Z,7.03
2018-12-17T16:28:10.480Z,7.27
2018-12-17T16:31:12.936Z,6.97
2018-12-17T16:34:15.414Z,6.97
2018-12-17T16:37:21.367Z,7.77
2018-12-17T16:40:24.173Z,7.30
2018-12-17T16:43:27.809Z,8.77
2018-12-17T16:46:30.274Z,6.40
2018-12-17T16:49:32.737Z,6.33
2018-12-17T16:52:35.196Z,6.70
2018-12-17T16:55:37.662Z,6.87
2018-12-17T16:58:40.268Z,7.67
2018-12-17T17:01:42.835Z,10.27
2018-12-17T17:04:45.865Z,9.37
2018-12-17T17:07:49.348Z,7.57
2018-12-17T17:10:51.795Z,8.60
2018-12-17T17:13:54.284Z,9.17
2018-12-17T17:16:57.288Z,8.17
